sensor_id;sensor_type;location;lat;lon;timestamp;P1;durP1;ratioP1;P2;durP2;ratioP2
63320;SDS011;49449;48.800;9.534;2023-06-10T00:01:09;7.47;;;6.60;;
63320;SDS011;49449;48.800;9.534;2023-06-10T00:03:37;7.30;;;6.63;;
63320;SDS011;49449;48.800;9.534;2023-06-10T00:06:06;6.82;;;6.22;;
63320;SDS011;49449;48.800;9.534;2023-06-10T00:08:34;6.50;;;5.95;;
63320;SDS011;49449;48.800;9.534;2023-06-10T00:11:03;6.72;;;5.90;;
63320;SDS011;49449;48.800;9.534;2023-06-10T00:13:31;7.15;;;6.45;;
63320;SDS011;49449;48.800;9.534;2023-06-10T00:15:59;6.60;;;6.00;;
63320;SDS011;49449;48.800;9.534;2023-06-10T00:18:27;7.30;;;6.53;;
63320;SDS011;49449;48.800;9.534;2023-06-10T00:20:57;6.90;;;6.13;;
63320;SDS011;49449;48.800;9.534;2023-06-10T00:23:31;7.78;;;7.07;;
63320;SDS011;49449;48.800;9.534;2023-06-10T00:26:04;7.40;;;6.32;;
63320;SDS011;49449;48.800;9.534;2023-06-10T00:28:31;7.70;;;6.65;;
63320;SDS011;49449;48.800;9.534;2023-06-10T00:30:59;6.38;;;5.78;;
63320;SDS011;49449;48.800;9.534;2023-06-10T00:33:27;7.15;;;6.18;;
63320;SDS011;49449;48.800;9.534;2023-06-10T00:35:55;6.63;;;6.03;;
63320;SDS011;49449;48.800;9.534;2023-06-10T00:38:23;6.70;;;6.10;;
63320;SDS011;49449;48.800;9.534;2023-06-10T00:40:52;6.15;;;5.55;;
63320;SDS011;49449;48.800;9.534;2023-06-10T00:43:20;6.78;;;6.13;;
63320;SDS011;49449;48.800;9.534;2023-06-10T00:45:48;7.15;;;6.20;;
63320;SDS011;49449;48.800;9.534;2023-06-10T00:48:16;7.53;;;6.78;;
63320;SDS011;49449;48.800;9.534;2023-06-10T00:50:45;7.13;;;6.53;;
63320;SDS011;49449;48.800;9.534;2023-06-10T00:53:13;6.65;;;6.05;;
63320;SDS011;49449;48.800;9.534;2023-06-10T00:55:41;6.75;;;6.15;;
63320;SDS011;49449;48.800;9.534;2023-06-10T00:58:10;7.55;;;6.95;;
63320;SDS011;49449;48.800;9.534;2023-06-10T01:00:38;7.78;;;7.07;;
63320;SDS011;49449;48.800;9.534;2023-06-10T01:03:06;6.88;;;6.25;;
63320;SDS011;49449;48.800;9.534;2023-06-10T01:05:35;6.78;;;6.18;;
63320;SDS011;49449;48.800;9.534;2023-06-10T01:08:06;6.82;;;6.22;;
63320;SDS011;49449;48.800;9.534;2023-06-10T01:10:38;7.22;;;6.28;;
63320;SDS011;49449;48.800;9.534;2023-06-10T01:13:10;6.53;;;5.93;;
63320;SDS011;49449;48.800;9.534;2023-06-10T01:15:39;7.88;;;6.22;;
63320;SDS011;49449;48.800;9.534;2023-06-10T01:18:07;6.03;;;5.53;;
63320;SDS011;49449;48.800;9.534;2023-06-10T01:20:38;8.00;;;7.30;;
63320;SDS011;49449;48.800;9.534;2023-06-10T01:23:09;7.22;;;6.47;;
63320;SDS011;49449;48.800;9.534;2023-06-10T01:25:38;6.97;;;6.38;;
63320;SDS011;49449;48.800;9.534;2023-06-10T01:28:12;7.43;;;6.72;;
63320;SDS011;49449;48.800;9.534;2023-06-10T01:30:43;7.18;;;6.47;;
63320;SDS011;49449;48.800;9.534;2023-06-10T01:33:16;8.70;;;7.88;;
63320;SDS011;49449;48.800;9.534;2023-06-10T01:35:46;8.50;;;7.63;;
63320;SDS011;49449;48.800;9.534;2023-06-10T01:38:16;7.35;;;6.75;;
63320;SDS011;49449;48.800;9.534;2023-06-10T01:40:47;7.70;;;7.00;;
63320;SDS011;49449;48.800;9.534;2023-06-10T01:43:15;7.53;;;6.82;;
63320;SDS011;49449;48.800;9.534;2023-06-10T01:45:43;6.47;;;5.88;;
63320;SDS011;49449;48.800;9.534;2023-06-10T01:48:11;7.30;;;6.60;;
63320;SDS011;49449;48.800;9.534;2023-06-10T01:50:39;7.72;;;7.03;;
63320;SDS011;49449;48.800;9.534;2023-06-10T01:53:07;9.48;;;6.95;;
63320;SDS011;49449;48.800;9.534;2023-06-10T01:55:36;7.95;;;7.22;;
63320;SDS011;49449;48.800;9.534;2023-06-10T01:58:03;7.43;;;6.72;;
63320;SDS011;49449;48.800;9.534;2023-06-10T02:00:31;7.85;;;7.15;;
63320;SDS011;49449;48.800;9.534;2023-06-10T02:02:59;7.75;;;6.80;;
63320;SDS011;49449;48.800;9.534;2023-06-10T02:05:27;8.35;;;7.55;;
63320;SDS011;49449;48.800;9.534;2023-06-10T02:07:55;7.45;;;6.47;;
63320;SDS011;49449;48.800;9.534;2023-06-10T02:10:23;8.13;;;7.32;;
63320;SDS011;49449;48.800;9.534;2023-06-10T02:12:52;7.13;;;6.43;;
63320;SDS011;49449;48.800;9.534;2023-06-10T02:15:20;7.65;;;6.95;;
63320;SDS011;49449;48.800;9.534;2023-06-10T02:17:48;7.68;;;6.72;;
63320;SDS011;49449;48.800;9.534;2023-06-10T02:20:16;7.05;;;6.25;;
63320;SDS011;49449;48.800;9.534;2023-06-10T02:22:45;7.60;;;6.90;;
63320;SDS011;49449;48.800;9.534;2023-06-10T02:25:13;7.15;;;6.45;;
63320;SDS011;49449;48.800;9.534;2023-06-10T02:27:41;7.45;;;6.75;;
63320;SDS011;49449;48.800;9.534;2023-06-10T02:30:10;6.70;;;6.03;;
63320;SDS011;49449;48.800;9.534;2023-06-10T02:32:40;6.95;;;6.28;;
63320;SDS011;49449;48.800;9.534;2023-06-10T02:35:08;6.85;;;6.25;;
63320;SDS011;49449;48.800;9.534;2023-06-10T02:37:38;7.57;;;6.97;;
63320;SDS011;49449;48.800;9.534;2023-06-10T02:40:06;7.13;;;6.38;;
63320;SDS011;49449;48.800;9.534;2023-06-10T02:42:35;6.93;;;6.32;;
63320;SDS011;49449;48.800;9.534;2023-06-10T02:45:03;7.30;;;6.50;;
63320;SDS011;49449;48.800;9.534;2023-06-10T02:47:33;7.07;;;6.45;;
63320;SDS011;49449;48.800;9.534;2023-06-10T02:50:05;6.85;;;6.15;;
63320;SDS011;49449;48.800;9.534;2023-06-10T02:52:33;7.85;;;6.68;;
63320;SDS011;49449;48.800;9.534;2023-06-10T02:55:01;8.18;;;7.38;;
63320;SDS011;49449;48.800;9.534;2023-06-10T02:57:29;6.57;;;6.05;;
63320;SDS011;49449;48.800;9.534;2023-06-10T02:59:56;7.15;;;6.45;;
63320;SDS011;49449;48.800;9.534;2023-06-10T03:02:24;7.30;;;6.20;;
63320;SDS011;49449;48.800;9.534;2023-06-10T03:04:56;6.50;;;5.90;;
63320;SDS011;49449;48.800;9.534;2023-06-10T03:07:24;7.63;;;6.93;;
63320;SDS011;49449;48.800;9.534;2023-06-10T03:09:52;7.03;;;6.43;;
63320;SDS011;49449;48.800;9.534;2023-06-10T03:12:20;7.13;;;6.53;;
63320;SDS011;49449;48.800;9.534;2023-06-10T03:14:47;6.85;;;6.15;;
63320;SDS011;49449;48.800;9.534;2023-06-10T03:17:15;7.43;;;6.72;;
63320;SDS011;49449;48.800;9.534;2023-06-10T03:19:43;6.38;;;5.85;;
63320;SDS011;49449;48.800;9.534;2023-06-10T03:22:13;7.63;;;6.97;;
63320;SDS011;49449;48.800;9.534;2023-06-10T03:24:42;7.00;;;6.40;;
63320;SDS011;49449;48.800;9.534;2023-06-10T03:27:12;7.30;;;6.53;;
63320;SDS011;49449;48.800;9.534;2023-06-10T03:29:41;6.90;;;6.30;;
63320;SDS011;49449;48.800;9.534;2023-06-10T03:32:09;6.18;;;5.57;;
63320;SDS011;49449;48.800;9.534;2023-06-10T03:34:37;7.18;;;6.47;;
63320;SDS011;49449;48.800;9.534;2023-06-10T03:37:06;7.00;;;6.40;;
63320;SDS011;49449;48.800;9.534;2023-06-10T03:39:35;7.13;;;5.88;;
63320;SDS011;49449;48.800;9.534;2023-06-10T03:42:03;6.65;;;5.90;;
63320;SDS011;49449;48.800;9.534;2023-06-10T03:44:31;7.95;;;7.25;;
63320;SDS011;49449;48.800;9.534;2023-06-10T03:47:00;6.38;;;5.88;;
63320;SDS011;49449;48.800;9.534;2023-06-10T03:49:28;7.25;;;6.38;;
63320;SDS011;49449;48.800;9.534;2023-06-10T03:51:55;6.60;;;6.00;;
63320;SDS011;49449;48.800;9.534;2023-06-10T03:54:23;6.45;;;5.85;;
63320;SDS011;49449;48.800;9.534;2023-06-10T03:56:52;6.78;;;6.00;;
63320;SDS011;49449;48.800;9.534;2023-06-10T03:59:21;7.55;;;6.95;;
63320;SDS011;49449;48.800;9.534;2023-06-10T04:01:48;6.80;;;6.10;;
63320;SDS011;49449;48.800;9.534;2023-06-10T04:04:16;7.32;;;6.10;;
63320;SDS011;49449;48.800;9.534;2023-06-10T04:06:44;7.15;;;6.50;;
63320;SDS011;49449;48.800;9.534;2023-06-10T04:09:12;6.30;;;5.70;;
63320;SDS011;49449;48.800;9.534;2023-06-10T04:11:40;6.13;;;5.53;;
63320;SDS011;49449;48.800;9.534;2023-06-10T04:14:10;6.28;;;5.68;;
63320;SDS011;49449;48.800;9.534;2023-06-10T04:16:38;6.70;;;6.00;;
63320;SDS011;49449;48.800;9.534;2023-06-10T04:19:07;6.55;;;5.95;;
63320;SDS011;49449;48.800;9.534;2023-06-10T04:21:35;6.93;;;6.32;;
63320;SDS011;49449;48.800;9.534;2023-06-10T04:24:03;5.80;;;5.30;;
63320;SDS011;49449;48.800;9.534;2023-06-10T04:26:31;7.35;;;6.65;;
63320;SDS011;49449;48.800;9.534;2023-06-10T04:29:00;7.32;;;6.72;;
63320;SDS011;49449;48.800;9.534;2023-06-10T04:31:29;7.30;;;5.95;;
63320;SDS011;49449;48.800;9.534;2023-06-10T04:33:56;6.35;;;5.75;;
63320;SDS011;49449;48.800;9.534;2023-06-10T04:36:24;6.38;;;5.78;;
63320;SDS011;49449;48.800;9.534;2023-06-10T04:38:52;7.15;;;6.55;;
63320;SDS011;49449;48.800;9.534;2023-06-10T04:41:20;5.57;;;5.07;;
63320;SDS011;49449;48.800;9.534;2023-06-10T04:43:48;7.53;;;6.43;;
63320;SDS011;49449;48.800;9.534;2023-06-10T04:46:16;6.32;;;5.82;;
63320;SDS011;49449;48.800;9.534;2023-06-10T04:48:45;6.70;;;6.10;;
63320;SDS011;49449;48.800;9.534;2023-06-10T04:51:13;6.10;;;5.50;;
63320;SDS011;49449;48.800;9.534;2023-06-10T04:53:41;5.88;;;5.38;;
63320;SDS011;49449;48.800;9.534;2023-06-10T04:56:09;5.60;;;5.00;;
63320;SDS011;49449;48.800;9.534;2023-06-10T04:58:37;5.60;;;5.10;;
63320;SDS011;49449;48.800;9.534;2023-06-10T05:01:05;5.72;;;5.13;;
63320;SDS011;49449;48.800;9.534;2023-06-10T05:03:32;6.05;;;5.15;;
63320;SDS011;49449;48.800;9.534;2023-06-10T05:06:01;6.25;;;5.65;;
63320;SDS011;49449;48.800;9.534;2023-06-10T05:08:29;7.65;;;6.43;;
63320;SDS011;49449;48.800;9.534;2023-06-10T05:10:57;6.80;;;5.72;;
63320;SDS011;49449;48.800;9.534;2023-06-10T05:13:25;5.97;;;5.43;;
63320;SDS011;49449;48.800;9.534;2023-06-10T05:15:53;6.00;;;5.40;;
63320;SDS011;49449;48.800;9.534;2023-06-10T05:18:21;5.72;;;5.13;;
63320;SDS011;49449;48.800;9.534;2023-06-10T05:20:48;6.60;;;5.93;;
63320;SDS011;49449;48.800;9.534;2023-06-10T05:23:18;5.97;;;5.38;;
63320;SDS011;49449;48.800;9.534;2023-06-10T05:25:45;5.28;;;4.78;;
63320;SDS011;49449;48.800;9.534;2023-06-10T05:28:14;6.53;;;5.93;;
63320;SDS011;49449;48.800;9.534;2023-06-10T05:30:42;6.72;;;5.53;;
63320;SDS011;49449;48.800;9.534;2023-06-10T05:33:10;11.52;;;5.85;;
63320;SDS011;49449;48.800;9.534;2023-06-10T05:35:38;6.00;;;4.85;;
63320;SDS011;49449;48.800;9.534;2023-06-10T05:38:07;5.90;;;5.07;;
63320;SDS011;49449;48.800;9.534;2023-06-10T05:40:36;6.47;;;5.88;;
63320;SDS011;49449;48.800;9.534;2023-06-10T05:43:03;6.28;;;5.78;;
63320;SDS011;49449;48.800;9.534;2023-06-10T05:45:31;5.18;;;4.78;;
63320;SDS011;49449;48.800;9.534;2023-06-10T05:47:59;6.00;;;5.40;;
63320;SDS011;49449;48.800;9.534;2023-06-10T05:50:27;5.85;;;5.22;;
63320;SDS011;49449;48.800;9.534;2023-06-10T05:52:55;6.65;;;6.10;;
63320;SDS011;49449;48.800;9.534;2023-06-10T05:55:23;6.40;;;5.57;;
63320;SDS011;49449;48.800;9.534;2023-06-10T05:57:59;6.13;;;5.25;;
63320;SDS011;49449;48.800;9.534;2023-06-10T06:00:27;4.97;;;4.57;;
63320;SDS011;49449;48.800;9.534;2023-06-10T06:02:55;5.10;;;4.60;;
63320;SDS011;49449;48.800;9.534;2023-06-10T06:05:23;4.50;;;4.10;;
63320;SDS011;49449;48.800;9.534;2023-06-10T06:07:51;5.20;;;4.80;;
63320;SDS011;49449;48.800;9.534;2023-06-10T06:10:19;4.53;;;4.13;;
63320;SDS011;49449;48.800;9.534;2023-06-10T06:12:46;5.75;;;5.25;;
63320;SDS011;49449;48.800;9.534;2023-06-10T06:15:16;5.93;;;5.00;;
63320;SDS011;49449;48.800;9.534;2023-06-10T06:17:43;5.32;;;4.60;;
63320;SDS011;49449;48.800;9.534;2023-06-10T06:20:11;5.10;;;4.60;;
63320;SDS011;49449;48.800;9.534;2023-06-10T06:22:39;4.53;;;4.13;;
63320;SDS011;49449;48.800;9.534;2023-06-10T06:25:07;4.13;;;3.72;;
63320;SDS011;49449;48.800;9.534;2023-06-10T06:27:35;4.97;;;4.00;;
63320;SDS011;49449;48.800;9.534;2023-06-10T06:30:03;4.78;;;4.38;;
63320;SDS011;49449;48.800;9.534;2023-06-10T06:32:33;4.47;;;4.07;;
63320;SDS011;49449;48.800;9.534;2023-06-10T06:35:01;5.00;;;4.43;;
63320;SDS011;49449;48.800;9.534;2023-06-10T06:37:29;4.72;;;4.30;;
63320;SDS011;49449;48.800;9.534;2023-06-10T06:39:57;4.55;;;4.15;;
63320;SDS011;49449;48.800;9.534;2023-06-10T06:42:26;4.10;;;3.80;;
63320;SDS011;49449;48.800;9.534;2023-06-10T06:44:54;5.10;;;4.70;;
63320;SDS011;49449;48.800;9.534;2023-06-10T06:47:22;5.53;;;5.03;;
63320;SDS011;49449;48.800;9.534;2023-06-10T06:49:51;5.25;;;4.75;;
63320;SDS011;49449;48.800;9.534;2023-06-10T06:52:19;4.43;;;4.00;;
63320;SDS011;49449;48.800;9.534;2023-06-10T06:54:48;5.30;;;4.60;;
63320;SDS011;49449;48.800;9.534;2023-06-10T06:57:16;5.10;;;4.60;;
63320;SDS011;49449;48.800;9.534;2023-06-10T06:59:44;4.95;;;4.47;;
63320;SDS011;49449;48.800;9.534;2023-06-10T07:02:11;4.13;;;3.83;;
63320;SDS011;49449;48.800;9.534;2023-06-10T07:04:39;4.70;;;4.30;;
63320;SDS011;49449;48.800;9.534;2023-06-10T07:07:08;4.22;;;3.83;;
63320;SDS011;49449;48.800;9.534;2023-06-10T07:09:37;4.50;;;4.10;;
63320;SDS011;49449;48.800;9.534;2023-06-10T07:12:05;5.40;;;4.90;;
63320;SDS011;49449;48.800;9.534;2023-06-10T07:14:34;4.75;;;4.35;;
63320;SDS011;49449;48.800;9.534;2023-06-10T07:17:02;4.63;;;4.07;;
63320;SDS011;49449;48.800;9.534;2023-06-10T07:19:30;4.53;;;4.10;;
63320;SDS011;49449;48.800;9.534;2023-06-10T07:21:57;4.20;;;3.80;;
63320;SDS011;49449;48.800;9.534;2023-06-10T07:24:26;4.15;;;3.75;;
63320;SDS011;49449;48.800;9.534;2023-06-10T07:26:54;4.65;;;3.90;;
63320;SDS011;49449;48.800;9.534;2023-06-10T07:29:22;3.85;;;3.55;;
63320;SDS011;49449;48.800;9.534;2023-06-10T07:31:49;4.95;;;4.45;;
63320;SDS011;49449;48.800;9.534;2023-06-10T07:34:17;4.50;;;4.10;;
63320;SDS011;49449;48.800;9.534;2023-06-10T07:36:45;4.40;;;4.00;;
63320;SDS011;49449;48.800;9.534;2023-06-10T07:39:13;4.75;;;4.10;;
63320;SDS011;49449;48.800;9.534;2023-06-10T07:41:42;4.80;;;4.35;;
63320;SDS011;49449;48.800;9.534;2023-06-10T07:44:10;5.53;;;4.95;;
63320;SDS011;49449;48.800;9.534;2023-06-10T07:46:37;4.35;;;3.78;;
63320;SDS011;49449;48.800;9.534;2023-06-10T07:49:05;4.63;;;4.22;;
63320;SDS011;49449;48.800;9.534;2023-06-10T07:51:33;4.80;;;4.40;;
63320;SDS011;49449;48.800;9.534;2023-06-10T07:54:01;4.47;;;4.07;;
63320;SDS011;49449;48.800;9.534;2023-06-10T07:56:29;4.32;;;3.95;;
63320;SDS011;49449;48.800;9.534;2023-06-10T07:58:59;4.50;;;4.10;;
63320;SDS011;49449;48.800;9.534;2023-06-10T08:01:27;4.63;;;4.18;;
63320;SDS011;49449;48.800;9.534;2023-06-10T08:03:56;4.63;;;4.20;;
63320;SDS011;49449;48.800;9.534;2023-06-10T08:06:24;5.20;;;4.80;;
63320;SDS011;49449;48.800;9.534;2023-06-10T08:08:51;5.22;;;4.82;;
63320;SDS011;49449;48.800;9.534;2023-06-10T08:11:19;4.68;;;4.10;;
63320;SDS011;49449;48.800;9.534;2023-06-10T08:13:47;4.88;;;4.47;;
63320;SDS011;49449;48.800;9.534;2023-06-10T08:16:16;4.85;;;4.45;;
63320;SDS011;49449;48.800;9.534;2023-06-10T08:18:44;4.82;;;4.43;;
63320;SDS011;49449;48.800;9.534;2023-06-10T08:21:12;4.70;;;4.30;;
63320;SDS011;49449;48.800;9.534;2023-06-10T08:23:39;5.32;;;4.82;;
63320;SDS011;49449;48.800;9.534;2023-06-10T08:26:07;4.28;;;3.97;;
63320;SDS011;49449;48.800;9.534;2023-06-10T08:28:35;4.30;;;3.90;;
63320;SDS011;49449;48.800;9.534;2023-06-10T08:31:03;4.43;;;3.97;;
63320;SDS011;49449;48.800;9.534;2023-06-10T08:33:32;4.93;;;4.53;;
63320;SDS011;49449;48.800;9.534;2023-06-10T08:36:00;4.65;;;4.13;;
63320;SDS011;49449;48.800;9.534;2023-06-10T08:38:27;4.82;;;3.88;;
63320;SDS011;49449;48.800;9.534;2023-06-10T08:40:56;4.32;;;3.92;;
63320;SDS011;49449;48.800;9.534;2023-06-10T08:43:29;4.82;;;4.43;;
63320;SDS011;49449;48.800;9.534;2023-06-10T08:46:00;4.60;;;4.22;;
63320;SDS011;49449;48.800;9.534;2023-06-10T08:48:29;5.32;;;4.93;;
63320;SDS011;49449;48.800;9.534;2023-06-10T08:51:01;4.90;;;4.50;;
63320;SDS011;49449;48.800;9.534;2023-06-10T08:53:31;5.70;;;5.18;;
63320;SDS011;49449;48.800;9.534;2023-06-10T08:56:04;5.32;;;4.93;;
63320;SDS011;49449;48.800;9.534;2023-06-10T08:58:33;5.10;;;4.70;;
63320;SDS011;49449;48.800;9.534;2023-06-10T09:01:06;5.50;;;5.10;;
63320;SDS011;49449;48.800;9.534;2023-06-10T09:03:36;4.45;;;4.00;;
63320;SDS011;49449;48.800;9.534;2023-06-10T09:06:05;4.47;;;4.07;;
63320;SDS011;49449;48.800;9.534;2023-06-10T09:08:33;4.65;;;4.05;;
63320;SDS011;49449;48.800;9.534;2023-06-10T09:11:02;4.15;;;3.85;;
63320;SDS011;49449;48.800;9.534;2023-06-10T09:13:29;4.95;;;4.22;;
63320;SDS011;49449;48.800;9.534;2023-06-10T09:15:57;4.43;;;4.03;;
63320;SDS011;49449;48.800;9.534;2023-06-10T09:18:27;5.03;;;4.63;;
63320;SDS011;49449;48.800;9.534;2023-06-10T09:20:57;5.25;;;4.47;;
63320;SDS011;49449;48.800;9.534;2023-06-10T09:23:25;4.47;;;4.07;;
63320;SDS011;49449;48.800;9.534;2023-06-10T09:25:56;4.82;;;4.03;;
63320;SDS011;49449;48.800;9.534;2023-06-10T09:28:25;4.85;;;4.20;;
63320;SDS011;49449;48.800;9.534;2023-06-10T09:31:01;5.15;;;4.65;;
63320;SDS011;49449;48.800;9.534;2023-06-10T09:33:30;4.80;;;4.40;;
63320;SDS011;49449;48.800;9.534;2023-06-10T09:36:00;5.03;;;4.63;;
63320;SDS011;49449;48.800;9.534;2023-06-10T09:38:30;4.30;;;3.95;;
63320;SDS011;49449;48.800;9.534;2023-06-10T09:40:58;4.63;;;4.22;;
63320;SDS011;49449;48.800;9.534;2023-06-10T09:43:38;4.75;;;4.30;;
63320;SDS011;49449;48.800;9.534;2023-06-10T09:46:16;4.88;;;4.38;;
63320;SDS011;49449;48.800;9.534;2023-06-10T09:48:45;4.68;;;4.22;;
63320;SDS011;49449;48.800;9.534;2023-06-10T09:51:15;5.45;;;4.43;;
63320;SDS011;49449;48.800;9.534;2023-06-10T09:53:47;5.22;;;4.70;;
63320;SDS011;49449;48.800;9.534;2023-06-10T09:56:16;4.78;;;4.30;;
63320;SDS011;49449;48.800;9.534;2023-06-10T09:58:44;4.10;;;3.80;;
63320;SDS011;49449;48.800;9.534;2023-06-10T10:01:13;5.53;;;4.10;;
63320;SDS011;49449;48.800;9.534;2023-06-10T10:03:44;5.40;;;4.90;;
63320;SDS011;49449;48.800;9.534;2023-06-10T10:06:15;3.90;;;3.60;;
63320;SDS011;49449;48.800;9.534;2023-06-10T10:08:45;3.92;;;3.63;;
63320;SDS011;49449;48.800;9.534;2023-06-10T10:11:14;3.88;;;3.58;;
63320;SDS011;49449;48.800;9.534;2023-06-10T10:13:45;4.38;;;3.97;;
63320;SDS011;49449;48.800;9.534;2023-06-10T10:16:16;5.47;;;4.97;;
63320;SDS011;49449;48.800;9.534;2023-06-10T10:18:47;4.15;;;3.75;;
63320;SDS011;49449;48.800;9.534;2023-06-10T10:21:22;4.47;;;4.10;;
63320;SDS011;49449;48.800;9.534;2023-06-10T10:23:56;3.83;;;3.50;;
63320;SDS011;49449;48.800;9.534;2023-06-10T10:26:29;4.20;;;3.80;;
63320;SDS011;49449;48.800;9.534;2023-06-10T10:29:02;4.03;;;3.72;;
63320;SDS011;49449;48.800;9.534;2023-06-10T10:31:35;4.82;;;4.43;;
63320;SDS011;49449;48.800;9.534;2023-06-10T10:34:04;4.40;;;4.00;;
63320;SDS011;49449;48.800;9.534;2023-06-10T10:36:36;4.18;;;3.88;;
63320;SDS011;49449;48.800;9.534;2023-06-10T10:39:05;3.83;;;3.53;;
63320;SDS011;49449;48.800;9.534;2023-06-10T10:41:34;4.38;;;4.07;;
63320;SDS011;49449;48.800;9.534;2023-06-10T10:44:05;4.20;;;3.83;;
63320;SDS011;49449;48.800;9.534;2023-06-10T10:46:41;4.40;;;4.00;;
63320;SDS011;49449;48.800;9.534;2023-06-10T10:49:10;4.45;;;4.03;;
63320;SDS011;49449;48.800;9.534;2023-06-10T10:51:55;4.18;;;3.88;;
63320;SDS011;49449;48.800;9.534;2023-06-10T10:54:30;4.07;;;3.78;;
63320;SDS011;49449;48.800;9.534;2023-06-10T10:57:15;4.47;;;4.07;;
63320;SDS011;49449;48.800;9.534;2023-06-10T10:59:46;4.20;;;3.85;;
63320;SDS011;49449;48.800;9.534;2023-06-10T11:02:19;4.32;;;4.03;;
63320;SDS011;49449;48.800;9.534;2023-06-10T11:05:01;4.65;;;4.25;;
63320;SDS011;49449;48.800;9.534;2023-06-10T11:07:32;5.20;;;4.80;;
63320;SDS011;49449;48.800;9.534;2023-06-10T11:10:01;4.57;;;4.18;;
63320;SDS011;49449;48.800;9.534;2023-06-10T11:12:50;4.75;;;4.35;;
63320;SDS011;49449;48.800;9.534;2023-06-10T11:15:22;5.00;;;4.35;;
63320;SDS011;49449;48.800;9.534;2023-06-10T11:18:10;4.32;;;3.97;;
63320;SDS011;49449;48.800;9.534;2023-06-10T11:23:37;5.22;;;4.63;;
63320;SDS011;49449;48.800;9.534;2023-06-10T11:26:10;5.55;;;4.43;;
63320;SDS011;49449;48.800;9.534;2023-06-10T11:28:42;10.52;;;6.28;;
63320;SDS011;49449;48.800;9.534;2023-06-10T11:31:29;5.47;;;4.28;;
63320;SDS011;49449;48.800;9.534;2023-06-10T11:33:58;6.05;;;5.07;;
63320;SDS011;49449;48.800;9.534;2023-06-10T11:36:28;5.60;;;5.10;;
63320;SDS011;49449;48.800;9.534;2023-06-10T11:38:58;5.25;;;4.15;;
63320;SDS011;49449;48.800;9.534;2023-06-10T11:41:27;4.63;;;4.22;;
63320;SDS011;49449;48.800;9.534;2023-06-10T11:43:58;4.93;;;4.45;;
63320;SDS011;49449;48.800;9.534;2023-06-10T11:46:29;5.10;;;4.65;;
63320;SDS011;49449;48.800;9.534;2023-06-10T11:48:57;4.45;;;4.05;;
63320;SDS011;49449;48.800;9.534;2023-06-10T11:51:26;4.63;;;4.22;;
63320;SDS011;49449;48.800;9.534;2023-06-10T11:53:55;4.10;;;3.80;;
63320;SDS011;49449;48.800;9.534;2023-06-10T11:56:25;5.38;;;4.88;;
63320;SDS011;49449;48.800;9.534;2023-06-10T11:58:55;4.70;;;4.22;;
63320;SDS011;49449;48.800;9.534;2023-06-10T12:01:24;4.10;;;3.53;;
63320;SDS011;49449;48.800;9.534;2023-06-10T12:04:01;5.00;;;4.13;;
63320;SDS011;49449;48.800;9.534;2023-06-10T12:06:42;4.20;;;3.60;;
63320;SDS011;49449;48.800;9.534;2023-06-10T12:09:13;4.75;;;4.35;;
63320;SDS011;49449;48.800;9.534;2023-06-10T12:11:50;5.68;;;4.40;;
63320;SDS011;49449;48.800;9.534;2023-06-10T12:17:21;4.57;;;4.18;;
63320;SDS011;49449;48.800;9.534;2023-06-10T12:19:50;5.28;;;4.45;;
63320;SDS011;49449;48.800;9.534;2023-06-10T12:22:18;4.10;;;3.70;;
63320;SDS011;49449;48.800;9.534;2023-06-10T12:24:57;4.00;;;3.70;;
63320;SDS011;49449;48.800;9.534;2023-06-10T12:27:28;4.38;;;4.07;;
63320;SDS011;49449;48.800;9.534;2023-06-10T12:29:57;4.10;;;3.70;;
63320;SDS011;49449;48.800;9.534;2023-06-10T12:32:35;3.97;;;3.60;;
63320;SDS011;49449;48.800;9.534;2023-06-10T12:35:03;4.53;;;4.10;;
63320;SDS011;49449;48.800;9.534;2023-06-10T12:37:32;4.03;;;3.83;;
63320;SDS011;49449;48.800;9.534;2023-06-10T12:40:00;4.70;;;4.30;;
63320;SDS011;49449;48.800;9.534;2023-06-10T12:42:31;4.05;;;3.70;;
63320;SDS011;49449;48.800;9.534;2023-06-10T12:45:00;5.40;;;4.10;;
63320;SDS011;49449;48.800;9.534;2023-06-10T12:47:31;4.35;;;3.70;;
63320;SDS011;49449;48.800;9.534;2023-06-10T12:50:01;5.25;;;3.97;;
63320;SDS011;49449;48.800;9.534;2023-06-10T12:52:30;4.15;;;3.75;;
63320;SDS011;49449;48.800;9.534;2023-06-10T12:54:59;5.78;;;4.30;;
63320;SDS011;49449;48.800;9.534;2023-06-10T12:57:27;5.03;;;3.50;;
63320;SDS011;49449;48.800;9.534;2023-06-10T12:59:57;5.03;;;3.88;;
63320;SDS011;49449;48.800;9.534;2023-06-10T13:02:30;3.80;;;3.50;;
63320;SDS011;49449;48.800;9.534;2023-06-10T13:04:58;4.13;;;3.83;;
63320;SDS011;49449;48.800;9.534;2023-06-10T13:09:56;3.97;;;3.67;;
63320;SDS011;49449;48.800;9.534;2023-06-10T13:12:25;4.72;;;4.20;;
63320;SDS011;49449;48.800;9.534;2023-06-10T13:15:00;3.80;;;3.50;;
63320;SDS011;49449;48.800;9.534;2023-06-10T13:17:28;4.57;;;4.18;;
63320;SDS011;49449;48.800;9.534;2023-06-10T13:19:56;4.10;;;3.70;;
63320;SDS011;49449;48.800;9.534;2023-06-10T13:22:24;4.85;;;3.83;;
63320;SDS011;49449;48.800;9.534;2023-06-10T13:24:52;3.80;;;3.50;;
63320;SDS011;49449;48.800;9.534;2023-06-10T13:27:20;4.13;;;3.72;;
63320;SDS011;49449;48.800;9.534;2023-06-10T13:29:48;3.95;;;3.55;;
63320;SDS011;49449;48.800;9.534;2023-06-10T13:32:17;4.03;;;3.72;;
63320;SDS011;49449;48.800;9.534;2023-06-10T13:34:45;4.18;;;3.80;;
63320;SDS011;49449;48.800;9.534;2023-06-10T13:37:13;4.40;;;4.00;;
63320;SDS011;49449;48.800;9.534;2023-06-10T13:39:41;4.72;;;3.78;;
63320;SDS011;49449;48.800;9.534;2023-06-10T13:42:09;4.22;;;3.92;;
63320;SDS011;49449;48.800;9.534;2023-06-10T13:44:37;4.50;;;4.10;;
63320;SDS011;49449;48.800;9.534;2023-06-10T13:47:05;4.18;;;3.78;;
63320;SDS011;49449;48.800;9.534;2023-06-10T13:49:35;4.25;;;3.95;;
63320;SDS011;49449;48.800;9.534;2023-06-10T13:52:04;4.32;;;4.03;;
63320;SDS011;49449;48.800;9.534;2023-06-10T13:54:32;4.05;;;3.75;;
63320;SDS011;49449;48.800;9.534;2023-06-10T13:57:02;4.30;;;3.90;;
63320;SDS011;49449;48.800;9.534;2023-06-10T13:59:30;4.13;;;3.83;;
63320;SDS011;49449;48.800;9.534;2023-06-10T14:01:58;4.10;;;3.80;;
63320;SDS011;49449;48.800;9.534;2023-06-10T14:04:26;4.18;;;3.78;;
63320;SDS011;49449;48.800;9.534;2023-06-10T14:06:57;3.75;;;3.45;;
63320;SDS011;49449;48.800;9.534;2023-06-10T14:09:25;4.50;;;4.10;;
63320;SDS011;49449;48.800;9.534;2023-06-10T14:11:53;4.20;;;3.90;;
63320;SDS011;49449;48.800;9.534;2023-06-10T14:14:21;4.88;;;4.22;;
63320;SDS011;49449;48.800;9.534;2023-06-10T14:16:49;4.60;;;4.20;;
63320;SDS011;49449;48.800;9.534;2023-06-10T14:19:17;5.20;;;4.20;;
63320;SDS011;49449;48.800;9.534;2023-06-10T14:21:45;4.68;;;3.97;;
63320;SDS011;49449;48.800;9.534;2023-06-10T14:24:14;4.65;;;4.18;;
63320;SDS011;49449;48.800;9.534;2023-06-10T14:26:45;4.10;;;3.70;;
63320;SDS011;49449;48.800;9.534;2023-06-10T14:29:13;5.03;;;4.63;;
63320;SDS011;49449;48.800;9.534;2023-06-10T14:31:40;4.00;;;3.70;;
63320;SDS011;49449;48.800;9.534;2023-06-10T14:34:08;4.60;;;4.20;;
63320;SDS011;49449;48.800;9.534;2023-06-10T14:36:36;4.32;;;3.92;;
63320;SDS011;49449;48.800;9.534;2023-06-10T14:39:04;4.20;;;3.90;;
63320;SDS011;49449;48.800;9.534;2023-06-10T14:41:33;4.30;;;4.00;;
63320;SDS011;49449;48.800;9.534;2023-06-10T14:44:01;5.57;;;4.18;;
63320;SDS011;49449;48.800;9.534;2023-06-10T14:46:29;3.83;;;3.53;;
63320;SDS011;49449;48.800;9.534;2023-06-10T14:48:56;3.65;;;3.35;;
63320;SDS011;49449;48.800;9.534;2023-06-10T14:51:25;3.45;;;3.15;;
63320;SDS011;49449;48.800;9.534;2023-06-10T14:53:53;4.38;;;3.97;;
63320;SDS011;49449;48.800;9.534;2023-06-10T14:56:21;3.60;;;3.30;;
63320;SDS011;49449;48.800;9.534;2023-06-10T14:58:51;3.80;;;3.47;;
63320;SDS011;49449;48.800;9.534;2023-06-10T15:01:18;3.67;;;3.38;;
63320;SDS011;49449;48.800;9.534;2023-06-10T15:03:46;3.53;;;3.25;;
63320;SDS011;49449;48.800;9.534;2023-06-10T15:06:14;4.15;;;3.85;;
63320;SDS011;49449;48.800;9.534;2023-06-10T15:08:43;4.35;;;4.05;;